createdAt,value
2024-04-12T00:01:53.616Z,100765.59
2024-04-12T00:11:55.939Z,100761.66
2024-04-12T00:21:58.356Z,100770.50
2024-04-12T00:32:00.638Z,100767.25
2024-04-12T00:42:02.788Z,100764.25
2024-04-12T00:52:05.287Z,100768.31
2024-04-12T01:02:07.500Z,100762.16
2024-04-12T01:12:10.402Z,100759.00
2024-04-12T01:22:31.147Z,100761.81
2024-04-12T01:32:52.083Z,100765.75
2024-04-12T01:43:13.210Z,100768.31
2024-04-12T01:53:34.102Z,100772.84
2024-04-12T02:03:54.774Z,100775.75
2024-04-12T02:14:15.661Z,100790.53
2024-04-12T02:24:36.320Z,100790.69
2024-04-12T02:34:56.990Z,100783.03
2024-04-12T02:45:17.699Z,100785.63
2024-04-12T02:55:38.410Z,100793.13
2024-04-12T03:05:59.184Z,100810.09
2024-04-12T03:16:01.474Z,100815.34
2024-04-12T03:26:03.698Z,100820.06
2024-04-12T03:36:05.966Z,100812.38
2024-04-12T03:46:08.384Z,100812.22
2024-04-12T03:56:10.700Z,100828.94
2024-04-12T04:06:13.036Z,100829.66
2024-04-12T04:16:15.338Z,100848.63
2024-04-12T04:26:17.505Z,100840.09
2024-04-12T04:36:19.794Z,100837.06
2024-04-12T04:46:22.093Z,100843.91
2024-04-12T04:56:24.383Z,100831.06
2024-04-12T05:06:26.558Z,100832.78
2024-04-12T05:16:28.768Z,100844.97
2024-04-12T05:26:32.658Z,100829.63
2024-04-12T05:36:36.083Z,100834.38
2024-04-12T05:46:38.216Z,100832.31
2024-04-12T05:56:40.544Z,100836.56
2024-04-12T06:06:43.225Z,100839.03
2024-04-12T06:16:45.678Z,100811.63
2024-04-12T06:26:47.966Z,100802.72
2024-04-12T06:36:50.358Z,100794.56
2024-04-12T06:46:52.510Z,100791.03
2024-04-12T06:56:54.664Z,100793.28
2024-04-12T07:06:56.998Z,100795.50
2024-04-12T07:17:00.255Z,100792.81
2024-04-12T07:27:06.268Z,100806.63
2024-04-12T07:37:08.663Z,100813.28
2024-04-12T07:47:11.702Z,100816.78
2024-04-12T07:57:14.092Z,100819.72
2024-04-12T08:07:16.270Z,100828.44
2024-04-12T08:17:18.539Z,100826.06
2024-04-12T08:27:20.843Z,100815.13
2024-04-12T08:37:23.028Z,100814.63
2024-04-12T08:47:25.353Z,100803.41
2024-04-12T08:57:27.581Z,100800.69
2024-04-12T09:07:29.746Z,100802.75
2024-04-12T09:17:32.127Z,100801.19
2024-04-12T09:27:34.516Z,100808.84
2024-04-12T09:37:36.721Z,100814.47
2024-04-12T09:47:39.042Z,100800.66
2024-04-12T09:57:41.570Z,100782.13
2024-04-12T10:18:01.470Z,100747.69
2024-04-12T10:28:03.859Z,100742.13
2024-04-12T10:38:06.043Z,100724.91
2024-04-12T10:48:15.063Z,100703.38
2024-04-12T10:58:17.447Z,100681.56
2024-04-12T11:08:23.715Z,100672.56
2024-04-12T11:18:29.943Z,100663.06
2024-04-12T11:28:32.158Z,100648.53
2024-04-12T11:38:34.422Z,100638.00
2024-04-12T11:48:38.226Z,100636.09
2024-04-12T11:58:41.403Z,100619.78
2024-04-12T12:08:43.588Z,100598.69
2024-04-12T12:18:46.832Z,100586.63
2024-04-12T12:28:49.186Z,100580.69
2024-04-12T12:38:51.595Z,100563.50
2024-04-12T12:48:54.214Z,100557.38
2024-04-12T12:59:01.650Z,100540.66
2024-04-12T13:09:03.835Z,100521.63
2024-04-12T13:19:06.352Z,100515.28
2024-04-12T13:29:08.761Z,100503.16
2024-04-12T13:39:11.196Z,100497.81
2024-04-12T13:49:13.462Z,100486.72
2024-04-12T13:59:15.890Z,100465.72
2024-04-12T14:09:21.919Z,100456.56
2024-04-12T14:19:25.188Z,100441.13
2024-04-12T14:29:27.457Z,100438.88
2024-04-12T14:39:29.850Z,100426.47
2024-04-12T14:49:33.663Z,100422.75
2024-04-12T14:59:35.843Z,100411.16
2024-04-12T15:09:38.071Z,100406.78
2024-04-12T15:19:40.401Z,100392.94
2024-04-12T15:29:49.279Z,100383.41
2024-04-12T15:39:51.823Z,100374.63
2024-04-12T15:49:54.016Z,100382.47
2024-04-12T15:59:56.682Z,100367.56
2024-04-12T16:09:59.156Z,100361.09
2024-04-12T16:20:01.702Z,100352.09
2024-04-12T16:30:04.908Z,100356.44
2024-04-12T16:40:07.350Z,100352.28
2024-04-12T16:50:09.613Z,100345.88
2024-04-12T17:00:11.906Z,100349.41
2024-04-12T17:10:15.673Z,100342.72
2024-04-12T17:20:19.234Z,100350.41
2024-04-12T17:30:23.414Z,100352.81
2024-04-12T17:40:25.724Z,100342.94
2024-04-12T17:50:28.099Z,100355.09
2024-04-12T18:00:30.422Z,100356.44
2024-04-12T18:10:36.793Z,100353.47
2024-04-12T18:20:39.229Z,100351.13
